Time;durP1;ratioP1;P1;durP2;ratioP2;P2;SDS_P1;SDS_P2;PMS_P1;PMS_P2;Temp;Humidity;BMP_temperature;BMP_pressure;BME280_temperature;BME280_humidity;BME280_pressure;Samples;Min_cycle;Max_cycle;Signal;HPM_P1;HPM_P2
2023/06/02 00:01:02;;;;;;;3.55;2.28;;;15.30;90.30;;;15.14;72.60;97120.19;5049543;28;20028;-35
2023/06/02 00:03:31;;;;;;;3.88;2.60;;;15.30;90.50;;;15.09;73.43;97117.78;5054287;28;20036;-35
2023/06/02 00:05:59;;;;;;;6.13;2.70;;;15.20;90.70;;;15.04;74.10;97114.59;5049282;28;20028;-35
2023/06/02 00:08:30;;;;;;;4.55;3.00;;;15.20;90.90;;;14.99;74.03;97120.16;5049497;28;20067;-35
2023/06/02 00:10:56;;;;;;;3.88;2.80;;;15.10;90.80;;;14.96;74.16;97117.66;5048918;28;20075;-35
2023/06/02 00:13:22;;;;;;;4.15;2.50;;;15.10;90.90;;;14.90;74.17;97110.09;5051393;28;20465;-35
2023/06/02 00:15:48;;;;;;;6.40;2.78;;;15.10;90.90;;;14.87;74.13;97116.41;5047526;28;20508;-35
2023/06/02 00:18:14;;;;;;;4.32;2.75;;;15.10;90.90;;;14.85;74.75;97113.00;5048941;28;20111;-35
2023/06/02 00:20:41;;;;;;;4.75;3.03;;;15.00;91.10;;;14.80;74.13;97114.22;5047667;28;20515;-35
2023/06/02 00:23:10;;;;;;;4.00;2.45;;;15.00;91.00;;;14.74;74.41;97112.78;5052583;28;20036;-35
2023/06/02 00:25:37;;;;;;;5.00;2.65;;;14.90;91.00;;;14.74;74.37;97111.94;5046890;28;20037;-35
2023/06/02 00:28:03;;;;;;;4.93;2.70;;;14.90;91.00;;;14.73;73.41;97110.22;5051824;28;20413;-35
2023/06/02 00:30:30;;;;;;;5.95;2.88;;;14.90;90.90;;;14.71;73.50;97110.28;5048618;28;20029;-35
2023/06/02 00:32:55;;;;;;;4.20;2.97;;;14.80;90.80;;;14.66;73.83;97113.22;5050565;28;20036;-35
2023/06/02 00:35:21;;;;;;;6.32;3.28;;;14.80;90.90;;;14.62;74.35;97105.53;5052374;28;20025;-35
2023/06/02 00:37:47;;;;;;;3.40;2.70;;;14.80;91.00;;;14.57;74.82;97108.44;5047482;28;20320;-35
2023/06/02 00:40:13;;;;;;;4.65;2.80;;;14.70;91.10;;;14.51;74.96;97106.94;5050279;28;20025;-35
2023/06/02 00:42:39;;;;;;;4.38;2.72;;;14.70;91.60;;;14.48;75.49;97103.63;5048703;28;20032;-35
2023/06/02 00:45:06;;;;;;;5.38;2.97;;;14.60;91.30;;;14.44;75.83;97104.75;5050503;28;20035;-35
2023/06/02 00:47:32;;;;;;;4.47;3.00;;;14.60;91.40;;;14.39;76.15;97110.34;5063430;28;20031;-35
2023/06/02 00:49:58;;;;;;;5.70;2.97;;;14.60;91.60;;;14.32;76.52;97103.66;5047991;28;20532;-35
2023/06/02 00:52:25;;;;;;;4.75;2.85;;;14.50;91.50;;;14.29;76.13;97109.97;5047396;28;20033;-35
2023/06/02 00:54:51;;;;;;;4.90;2.83;;;14.50;91.50;;;14.25;75.92;97111.09;5050382;28;20077;-35
2023/06/02 00:57:17;;;;;;;5.90;3.20;;;14.50;91.50;;;14.18;75.37;97100.94;5053283;28;20037;-35
2023/06/02 00:59:44;;;;;;;5.18;3.15;;;14.40;91.40;;;14.19;74.95;97110.59;5047722;28;20088;-35
2023/06/02 01:02:10;;;;;;;11.25;3.65;;;14.40;91.30;;;14.12;74.50;97105.63;5048306;28;20531;-35
2023/06/02 01:04:40;;;;;;;10.10;3.60;;;14.40;91.20;;;14.10;75.08;97115.47;5048111;28;20163;-35
2023/06/02 01:07:08;;;;;;;5.05;3.22;;;14.30;91.20;;;14.07;77.32;97113.00;5052372;28;20024;-35
2023/06/02 01:09:34;;;;;;;4.45;3.25;;;14.30;91.60;;;14.01;75.34;97113.31;5048246;28;20038;-35
2023/06/02 01:12:01;;;;;;;5.53;3.03;;;14.30;91.40;;;13.98;76.87;97117.94;5049466;28;20075;-35
2023/06/02 01:14:28;;;;;;;6.63;3.53;;;14.20;91.50;;;13.96;77.21;97109.22;5050021;28;20025;-35
2023/06/02 01:16:54;;;;;;;16.40;3.30;;;14.20;91.70;;;13.90;78.01;97108.59;5043928;28;20519;-35
2023/06/02 01:19:21;;;;;;;4.72;3.20;;;14.20;91.90;;;13.86;77.27;97115.03;5049909;28;20036;-35
2023/06/02 01:22:01;;;;;;;4.88;3.30;;;14.10;91.80;;;13.82;76.81;97116.13;5044232;28;20029;-35
2023/06/02 01:24:38;;;;;;;5.50;3.33;;;14.10;91.70;;;13.75;78.15;97104.16;5062470;28;20017;-35
2023/06/02 01:27:09;;;;;;;5.03;3.35;;;14.00;92.00;;;13.66;77.86;97094.91;5041793;28;20029;-35
2023/06/02 01:29:39;;;;;;;5.78;3.42;;;14.00;92.00;;;13.67;77.92;97109.84;5048639;28;20044;-35
2023/06/02 01:32:43;;;;;;;7.32;3.70;;;13.90;92.00;;;13.59;77.18;97108.59;5045898;28;20032;-35
2023/06/02 01:35:13;;;;;;;6.88;3.60;;;13.90;91.80;;;13.54;78.16;97107.00;5025926;28;20055;-35
2023/06/02 01:37:46;;;;;;;5.38;3.40;;;13.80;92.00;;;13.52;78.80;97108.91;5046870;28;20040;-35
2023/06/02 01:40:13;;;;;;;5.80;3.65;;;13.80;92.20;;;13.52;79.55;97108.91;5049612;28;20363;-35
2023/06/02 01:42:39;;;;;;;5.45;3.47;;;13.80;92.30;;;13.52;79.68;97106.25;5046365;28;20029;-35
2023/06/02 01:45:07;;;;;;;6.45;3.33;;;13.80;92.40;;;13.51;79.99;97104.56;5048827;28;20028;-35
2023/06/02 01:47:32;;;;;;;8.27;4.03;;;13.80;92.50;;;13.46;80.57;97108.34;5047217;28;20017;-35
2023/06/02 01:49:58;;;;;;;6.25;3.60;;;13.70;92.50;;;13.45;80.49;97099.56;5048041;28;20437;-35
2023/06/02 01:52:24;;;;;;;5.35;3.30;;;13.70;92.60;;;13.42;81.49;97106.81;5049755;28;20090;-35
2023/06/02 01:54:51;;;;;;;7.60;3.65;;;13.70;92.80;;;13.35;83.05;97106.28;5047399;28;20071;-35
2023/06/02 01:57:16;;;;;;;4.93;3.70;;;13.60;93.10;;;13.29;84.01;97101.28;5044333;28;20060;-35
2023/06/02 01:59:42;;;;;;;5.15;3.35;;;13.60;93.20;;;13.27;83.80;97101.34;5048510;28;20074;-35
2023/06/02 02:02:08;;;;;;;6.22;3.65;;;13.60;93.30;;;13.24;83.86;97106.81;5046786;28;20061;-35
2023/06/02 02:04:34;;;;;;;4.85;3.30;;;13.50;93.40;;;13.18;84.40;97093.91;5046281;28;20029;-35
2023/06/02 02:07:01;;;;;;;8.85;3.63;;;13.50;93.40;;;13.20;84.61;97102.63;5051002;28;20433;-35
2023/06/02 02:09:27;;;;;;;6.68;3.90;;;13.50;93.50;;;13.05;84.78;97087.53;5050661;28;20040;-35
2023/06/02 02:11:53;;;;;;;6.75;3.50;;;13.40;93.50;;;13.09;85.64;97113.75;5047851;28;20032;-35
2023/06/02 02:14:19;;;;;;;7.20;3.85;;;13.40;93.70;;;13.08;86.54;97104.13;5054240;28;20036;-35
2023/06/02 02:16:49;;;;;;;5.57;3.60;;;13.40;93.90;;;13.07;86.73;97112.16;5051464;28;20033;-35
2023/06/02 02:19:16;;;;;;;9.05;4.10;;;13.40;94.00;;;12.95;86.78;97106.53;5052933;28;20052;-35
2023/06/02 02:21:42;;;;;;;6.70;3.80;;;13.30;94.00;;;12.96;87.64;97118.84;5049415;28;20029;-35
2023/06/02 02:24:08;;;;;;;6.20;3.85;;;13.30;94.50;;;12.95;88.50;97113.63;5046122;28;20074;-35
2023/06/02 02:26:33;;;;;;;8.00;3.90;;;13.30;94.30;;;12.93;90.08;97112.84;5055164;28;20029;-35
2023/06/02 02:28:59;;;;;;;5.82;3.75;;;13.20;94.50;;;12.88;89.58;97117.50;5046211;28;20025;-35
2023/06/02 02:31:27;;;;;;;6.68;3.50;;;13.20;94.60;;;12.86;89.94;97116.75;5049558;28;20069;-35
2023/06/02 02:33:53;;;;;;;6.60;3.35;;;13.20;94.70;;;12.85;90.01;97121.19;5028030;28;20025;-35
2023/06/02 02:36:19;;;;;;;5.03;3.50;;;13.10;94.70;;;12.75;90.64;97112.84;5051320;28;20087;-35
2023/06/02 02:38:47;;;;;;;7.57;3.95;;;13.10;94.90;;;12.74;91.44;97111.13;5049607;28;20638;-35
2023/06/02 02:41:12;;;;;;;6.35;3.47;;;13.10;95.10;;;12.72;91.52;97114.78;5050344;28;20386;-35
2023/06/02 02:43:38;;;;;;;5.40;3.90;;;13.00;95.10;;;12.64;90.87;97109.88;5046172;28;20028;-35
2023/06/02 02:46:04;;;;;;;8.00;3.55;;;13.00;95.00;;;12.58;92.08;97118.97;5047679;28;20046;-35
2023/06/02 02:48:30;;;;;;;8.93;4.47;;;12.90;95.10;;;12.50;92.95;97113.19;5050398;28;20031;-35
2023/06/02 02:50:55;;;;;;;8.77;4.03;;;12.90;95.40;;;12.46;94.10;97106.34;5044006;28;20036;-35
2023/06/02 02:53:21;;;;;;;6.07;3.97;;;12.80;95.60;;;12.47;94.19;97120.44;5049848;28;20521;-35
2023/06/02 02:55:50;;;;;;;6.90;4.20;;;12.80;95.70;;;12.36;94.98;97108.59;5049902;28;20051;-35
2023/06/02 02:58:16;;;;;;;7.20;3.75;;;12.80;95.80;;;12.39;95.66;97121.66;5048895;28;20032;-35
2023/06/02 03:00:41;;;;;;;6.00;4.20;;;12.70;96.00;;;12.34;95.96;97126.31;5045668;28;20549;-35
2023/06/02 03:03:07;;;;;;;9.75;4.18;;;12.70;96.10;;;12.32;97.28;97119.41;5045738;28;20032;-35
2023/06/02 03:05:34;;;;;;;7.05;4.15;;;12.70;96.40;;;12.29;97.46;97120.41;5050255;28;20477;-35
2023/06/02 03:08:01;;;;;;;6.70;4.18;;;12.60;96.40;;;12.26;98.78;97120.56;5046952;28;20392;-35
2023/06/02 03:10:26;;;;;;;6.60;4.15;;;12.60;96.70;;;12.21;99.76;97119.91;5050347;28;20040;-35
2023/06/02 03:12:52;;;;;;;6.10;3.80;;;12.50;96.90;;;12.21;100.00;97127.84;5045929;28;20029;-35
2023/06/02 03:15:18;;;;;;;6.55;4.22;;;12.50;97.10;;;12.16;100.00;97128.06;5052370;28;20687;-35
2023/06/02 03:17:45;;;;;;;5.55;4.00;;;12.50;97.40;;;12.12;100.00;97128.28;5049713;28;20094;-35
2023/06/02 03:20:11;;;;;;;7.00;3.70;;;12.40;97.50;;;12.08;100.00;97130.22;5051864;28;20033;-35
2023/06/02 03:22:37;;;;;;;8.82;4.30;;;12.40;97.70;;;12.03;100.00;97134.84;5050960;28;20025;-35
2023/06/02 03:25:05;;;;;;;7.13;3.72;;;12.40;97.90;;;11.98;100.00;97137.72;5049488;28;20036;-35
2023/06/02 03:27:30;;;;;;;6.43;4.15;;;12.30;98.00;;;11.97;100.00;97146.56;5049270;28;20017;-35
2023/06/02 03:29:56;;;;;;;7.25;3.70;;;12.30;98.30;;;11.95;100.00;97142.28;5047478;28;20040;-35
2023/06/02 03:32:22;;;;;;;5.05;3.95;;;12.30;98.50;;;11.91;100.00;97141.56;5050386;28;20534;-35
2023/06/02 03:34:48;;;;;;;8.55;4.80;;;12.20;98.70;;;11.92;100.00;97140.66;5048627;28;20020;-35
2023/06/02 03:37:14;;;;;;;7.32;4.85;;;12.20;98.70;;;11.91;100.00;97151.28;5051145;28;20287;-35
2023/06/02 03:39:40;;;;;;;8.07;4.28;;;12.20;99.10;;;11.92;100.00;97147.72;5048917;28;20460;-35
2023/06/02 03:42:06;;;;;;;11.00;4.70;;;12.20;99.30;;;11.89;100.00;97153.13;5047453;28;20029;-35
2023/06/02 03:44:31;;;;;;;6.40;4.70;;;12.20;99.50;;;11.84;100.00;97148.91;5053677;28;20116;-35
2023/06/02 03:46:57;;;;;;;7.50;4.35;;;12.20;99.70;;;11.84;100.00;97148.03;5050132;28;20025;-35
2023/06/02 03:49:27;;;;;;;7.68;4.80;;;12.20;99.80;;;11.79;100.00;97144.72;5050178;28;20033;-35
2023/06/02 03:51:52;;;;;;;8.52;4.90;;;12.20;99.90;;;11.78;100.00;97150.97;5049649;28;20064;-36
2023/06/02 03:54:18;;;;;;;6.13;4.70;;;12.10;99.90;;;11.77;100.00;97144.84;5050127;28;20154;-35
2023/06/02 03:56:44;;;;;;;5.82;4.40;;;12.10;99.90;;;11.75;100.00;97143.16;5049670;28;20044;-35
2023/06/02 03:59:09;;;;;;;8.32;4.82;;;12.10;99.90;;;11.73;100.00;97142.38;5052005;28;20393;-35
2023/06/02 04:01:35;;;;;;;6.80;4.57;;;12.10;99.90;;;11.73;100.00;97143.22;5050664;28;20255;-35
2023/06/02 04:04:01;;;;;;;9.23;4.97;;;12.10;99.90;;;11.73;100.00;97145.88;5051015;28;20062;-35
2023/06/02 04:06:28;;;;;;;8.32;5.10;;;12.10;99.90;;;11.72;100.00;97148.59;5049229;28;20535;-35
2023/06/02 04:08:54;;;;;;;7.90;4.97;;;12.10;99.90;;;11.71;100.00;97141.59;5047752;28;20375;-35
2023/06/02 04:11:22;;;;;;;10.43;4.97;;;12.10;99.90;;;11.74;100.00;97144.13;5049338;28;20405;-35
2023/06/02 04:13:49;;;;;;;7.85;4.80;;;12.10;99.90;;;11.76;100.00;97142.25;5046904;28;20033;-35
2023/06/02 04:16:15;;;;;;;5.72;4.85;;;12.10;99.90;;;11.78;100.00;97138.59;5050159;28;20086;-35
2023/06/02 04:18:40;;;;;;;7.63;5.28;;;12.10;99.90;;;11.83;100.00;97139.25;5048154;28;20028;-35
2023/06/02 04:21:06;;;;;;;8.00;5.53;;;12.20;99.90;;;11.88;100.00;97148.75;5049347;28;20487;-35
2023/06/02 04:23:32;;;;;;;10.02;6.00;;;12.20;99.90;;;11.89;100.00;97146.03;5052735;28;20029;-35
2023/06/02 04:25:58;;;;;;;7.38;5.18;;;12.20;99.90;;;11.96;100.00;97155.44;5049420;28;20039;-35
2023/06/02 04:28:23;;;;;;;7.38;4.85;;;12.30;99.90;;;11.97;100.00;97149.22;5051001;28;20027;-35
2023/06/02 04:30:55;;;;;;;5.82;4.80;;;12.30;99.90;;;12.05;100.00;97161.22;5051897;28;20017;-36
2023/06/02 04:33:21;;;;;;;10.88;5.07;;;12.40;99.90;;;12.10;100.00;97164.50;5047647;28;20044;-36
2023/06/02 04:35:47;;;;;;;9.43;5.65;;;12.40;99.90;;;12.11;100.00;97160.91;5048301;28;20033;-36
2023/06/02 04:38:13;;;;;;;8.77;5.50;;;12.40;99.90;;;12.13;100.00;97164.34;5049340;28;20075;-36
2023/06/02 04:40:39;;;;;;;8.15;5.35;;;12.40;99.90;;;12.16;100.00;97169.50;5050600;28;20467;-36
2023/06/02 04:43:05;;;;;;;9.13;5.60;;;12.40;99.90;;;12.20;100.00;97174.59;5051498;28;20037;-36
2023/06/02 04:45:31;;;;;;;9.07;5.68;;;12.50;99.90;;;12.22;100.00;97178.00;5052558;28;20024;-36
2023/06/02 04:47:57;;;;;;;11.90;5.72;;;12.50;99.90;;;12.14;100.00;97150.22;5048659;28;20492;-36
2023/06/02 04:50:23;;;;;;;9.52;5.68;;;12.60;99.90;;;12.27;100.00;97167.19;5051253;28;20037;-36
2023/06/02 04:52:49;;;;;;;9.23;6.05;;;12.60;99.90;;;12.33;100.00;97168.72;5049659;28;20098;-35
2023/06/02 04:55:15;;;;;;;7.15;5.05;;;12.70;99.90;;;12.48;100.00;97183.84;5051270;28;20074;-35
2023/06/02 04:57:41;;;;;;;8.05;5.05;;;12.70;99.90;;;12.57;100.00;97187.81;5048965;28;20028;-35
2023/06/02 05:00:08;;;;;;;9.35;5.72;;;12.80;99.90;;;12.65;100.00;97187.44;5049014;28;20040;-36
2023/06/02 05:02:37;;;;;;;10.07;5.78;;;12.80;99.90;;;12.65;100.00;97184.81;5049173;28;20119;-35
2023/06/02 05:05:05;;;;;;;9.68;6.10;;;12.90;99.90;;;12.66;100.00;97181.25;5046914;28;20115;-36
2023/06/02 05:07:30;;;;;;;10.90;6.13;;;12.90;99.90;;;12.70;100.00;97175.69;5048782;28;20028;-36
2023/06/02 05:09:57;;;;;;;9.77;5.32;;;13.00;99.90;;;12.75;100.00;97178.13;5050285;28;20083;-36
2023/06/02 05:12:22;;;;;;;12.38;6.40;;;13.00;99.90;;;12.79;100.00;97187.63;5046637;28;20037;-36
2023/06/02 05:14:48;;;;;;;10.50;6.05;;;13.10;99.90;;;12.83;100.00;97183.03;5048673;28;20089;-35
2023/06/02 05:17:24;;;;;;;15.85;6.30;;;13.10;99.90;;;12.88;100.00;97181.03;5050395;28;20045;-35
2023/06/02 05:19:53;;;;;;;12.25;5.93;;;13.10;99.90;;;12.96;100.00;97178.88;5048436;28;20396;-35
2023/06/02 05:22:19;;;;;;;10.75;6.10;;;13.20;99.90;;;13.07;100.00;97179.19;5050366;28;20029;-35
2023/06/02 05:24:45;;;;;;;9.63;6.15;;;13.30;99.90;;;13.25;100.00;97181.84;5049637;28;20516;-36
2023/06/02 05:27:11;;;;;;;9.95;6.25;;;13.40;99.90;;;13.54;100.00;97177.69;5048471;28;20032;-36
2023/06/02 05:29:37;;;;;;;8.75;5.47;;;13.60;99.90;;;13.76;100.00;97172.09;5049247;28;20017;-36
2023/06/02 05:32:04;;;;;;;11.48;5.15;;;13.80;99.90;;;13.97;100.00;97185.16;5048662;28;20044;-36
2023/06/02 05:34:31;;;;;;;10.27;6.03;;;13.90;99.90;;;13.97;100.00;97187.81;5048511;28;20029;-36
2023/06/02 05:36:57;;;;;;;8.05;5.20;;;14.00;99.90;;;13.97;100.00;97193.13;5046161;28;20035;-36
2023/06/02 05:39:22;;;;;;;9.45;6.28;;;14.00;99.90;;;13.91;100.00;97200.47;5050537;28;20040;-36
2023/06/02 05:41:48;;;;;;;13.00;6.07;;;14.00;99.90;;;13.96;100.00;97189.59;5046830;28;20040;-36
2023/06/02 05:44:14;;;;;;;10.00;5.88;;;14.10;99.90;;;13.90;100.00;97190.78;5048730;28;20033;-36
2023/06/02 05:46:40;;;;;;;10.15;6.28;;;14.10;99.90;;;14.00;100.00;97198.25;5048927;28;20048;-36
2023/06/02 05:49:05;;;;;;;9.45;6.63;;;14.20;99.90;;;14.05;100.00;97194.44;5046959;28;20071;-36
2023/06/02 05:51:31;;;;;;;10.30;5.88;;;14.20;99.90;;;14.16;100.00;97199.16;5048875;28;20032;-36
2023/06/02 05:53:57;;;;;;;8.05;5.32;;;14.30;99.90;;;14.26;100.00;97191.53;5048439;28;20039;-35
2023/06/02 05:56:23;;;;;;;9.25;5.70;;;14.40;99.90;;;14.37;100.00;97196.25;5047699;28;20029;-35
2023/06/02 05:58:49;;;;;;;9.20;5.45;;;14.60;99.90;;;14.53;100.00;97202.41;5048439;28;20032;-35
2023/06/02 06:01:15;;;;;;;7.78;5.50;;;14.70;99.90;;;14.65;100.00;97195.59;5045763;28;20032;-35
2023/06/02 06:03:41;;;;;;;6.88;4.72;;;14.80;99.90;;;14.79;100.00;97203.63;5049252;28;20029;-35
2023/06/02 06:06:08;;;;;;;8.02;5.88;;;14.90;99.90;;;14.91;99.88;97194.06;5050077;28;20040;-35
2023/06/02 06:08:34;;;;;;;9.80;6.05;;;15.00;99.90;;;15.00;98.68;97196.22;5047173;28;20033;-35
2023/06/02 06:10:59;;;;;;;7.55;5.13;;;15.10;99.90;;;15.08;98.14;97191.31;5046472;28;20044;-35
2023/06/02 06:13:25;;;;;;;9.48;5.47;;;15.20;99.90;;;15.22;97.69;97200.28;5046184;28;20090;-35
2023/06/02 06:15:51;;;;;;;7.35;5.40;;;15.30;99.90;;;15.31;98.18;97202.41;5046537;28;20570;-35
2023/06/02 06:18:18;;;;;;;7.85;5.20;;;15.40;99.90;;;15.37;95.33;97198.50;5049123;28;20041;-35
2023/06/02 06:20:45;;;;;;;7.82;5.50;;;15.50;99.90;;;15.45;94.89;97202.44;5045328;28;20033;-35
2023/06/02 06:23:13;;;;;;;11.80;6.40;;;15.50;99.80;;;15.53;93.46;97203.78;5046479;28;20037;-35
2023/06/02 06:25:39;;;;;;;7.90;6.05;;;15.60;99.70;;;15.53;92.28;97209.09;5046374;28;20020;-35
2023/06/02 06:28:04;;;;;;;9.18;5.25;;;15.60;99.30;;;15.64;93.79;97207.47;5046905;28;20025;-35
2023/06/02 06:30:30;;;;;;;11.50;5.32;;;15.70;99.50;;;15.76;92.61;97208.59;5042735;28;20026;-35
2023/06/02 06:32:56;;;;;;;9.77;5.63;;;15.80;99.40;;;15.85;90.64;97220.47;5044104;28;20032;-35
2023/06/02 06:35:22;;;;;;;11.68;5.55;;;15.90;99.00;;;15.96;89.41;97211.81;5045287;28;20131;-37
2023/06/02 06:37:47;;;;;;;15.48;7.55;;;16.00;98.80;;;16.04;90.04;97217.50;5045624;28;20025;-35
2023/06/02 06:40:13;;;;;;;8.23;5.50;;;16.10;98.80;;;16.13;87.96;97224.06;5047178;28;20466;-35
2023/06/02 06:42:39;;;;;;;6.88;4.60;;;16.20;98.50;;;16.19;89.18;97223.72;5048036;28;20025;-35
2023/06/02 06:45:05;;;;;;;8.85;5.50;;;16.20;98.50;;;16.23;88.63;97225.22;5051039;28;20385;-35
2023/06/02 06:47:31;;;;;;;8.85;6.20;;;16.20;98.40;;;16.28;84.43;97222.28;5047544;28;20024;-35
2023/06/02 06:49:56;;;;;;;11.38;6.18;;;16.30;97.80;;;16.35;84.24;97226.25;5052143;28;20536;-35
2023/06/02 06:52:22;;;;;;;7.38;5.60;;;16.40;97.70;;;16.47;84.42;97227.28;5051480;28;20082;-35
2023/06/02 06:54:48;;;;;;;8.48;6.05;;;16.40;97.70;;;16.54;83.05;97229.44;5053367;28;20029;-35
2023/06/02 06:57:15;;;;;;;8.82;5.45;;;16.50;97.40;;;16.64;83.29;97223.56;5052360;28;20033;-35
2023/06/02 06:59:42;;;;;;;7.25;5.22;;;16.60;97.50;;;16.73;82.78;97226.47;5051525;28;20230;-35
2023/06/02 07:02:08;;;;;;;7.72;5.07;;;16.70;97.30;;;16.83;83.32;97233.84;5046521;28;20043;-35
2023/06/02 07:04:34;;;;;;;9.88;6.40;;;16.80;97.40;;;16.78;81.42;97234.16;5049742;28;20228;-35
2023/06/02 07:07:00;;;;;;;8.77;5.75;;;16.90;97.10;;;16.74;82.00;97236.19;5052442;28;20028;-35
2023/06/02 07:09:25;;;;;;;10.23;5.65;;;16.90;96.80;;;16.82;82.48;97235.66;5052794;28;20024;-35
2023/06/02 07:11:51;;;;;;;8.02;5.03;;;16.90;97.00;;;16.95;80.33;97231.28;5052318;28;20029;-35
2023/06/02 07:14:17;;;;;;;8.55;5.50;;;17.00;96.90;;;16.91;81.44;97240.44;5049738;28;20392;-35
2023/06/02 07:16:46;;;;;;;9.40;5.90;;;17.00;96.70;;;16.91;82.95;97231.59;5048004;28;20068;-35
2023/06/02 07:19:12;;;;;;;7.82;6.00;;;17.00;97.00;;;17.09;81.03;97238.38;5051064;28;20036;-35
2023/06/02 07:21:38;;;;;;;12.05;5.72;;;17.10;96.90;;;17.17;79.80;97237.84;5050168;28;20037;-35
2023/06/02 07:24:04;;;;;;;6.72;4.38;;;17.10;96.60;;;17.28;79.45;97234.47;5051704;28;20049;-35
2023/06/02 07:26:30;;;;;;;9.05;5.43;;;17.20;96.50;;;17.27;78.53;97233.63;5052255;28;20024;-35
2023/06/02 07:28:56;;;;;;;6.53;5.22;;;17.30;96.20;;;17.28;76.47;97235.34;5049105;28;20552;-36
2023/06/02 07:31:22;;;;;;;8.07;4.97;;;17.30;95.80;;;17.17;77.93;97233.41;5050142;28;20452;-36
2023/06/02 07:33:48;;;;;;;10.75;5.68;;;17.30;95.90;;;17.00;76.82;97235.47;5049783;28;20111;-36
2023/06/02 07:36:14;;;;;;;8.43;5.60;;;17.20;95.50;;;16.90;78.08;97240.53;5049237;28;20070;-36
2023/06/02 07:38:40;;;;;;;9.40;6.05;;;17.00;95.60;;;16.89;82.20;97242.34;5049518;28;20029;-36
2023/06/02 07:41:06;;;;;;;10.20;5.68;;;17.00;96.60;;;16.92;79.23;97241.28;5050890;28;20074;-35
2023/06/02 07:43:32;;;;;;;6.50;4.40;;;17.00;96.30;;;17.04;80.30;97231.63;5052810;28;20090;-35
2023/06/02 07:45:57;;;;;;;8.75;4.70;;;17.10;96.50;;;17.21;80.30;97243.84;5053149;28;20496;-35
2023/06/02 07:48:23;;;;;;;8.30;5.10;;;17.20;96.50;;;17.24;77.56;97231.16;5047271;28;20029;-36
2023/06/02 07:50:49;;;;;;;6.78;4.38;;;17.30;95.90;;;17.38;77.56;97229.41;5047307;28;20036;-35
2023/06/02 07:53:14;;;;;;;5.25;3.95;;;17.30;95.90;;;17.49;76.97;97222.38;5053039;28;20404;-35
2023/06/02 07:55:40;;;;;;;6.30;4.82;;;17.50;95.90;;;17.65;76.20;97238.19;5053108;28;20029;-36
2023/06/02 07:58:08;;;;;;;7.05;4.78;;;17.60;95.50;;;17.61;76.03;97238.50;5049473;28;20036;-36
2023/06/02 08:00:33;;;;;;;8.73;4.90;;;17.70;95.20;;;17.67;78.06;97240.75;5049742;28;20061;-36
2023/06/02 08:02:59;;;;;;;11.05;5.22;;;17.70;95.80;;;17.85;77.10;97227.97;5050688;28;20068;-36
2023/06/02 08:05:25;;;;;;;6.88;4.70;;;17.80;96.10;;;17.90;74.34;97236.53;5048698;28;20033;-36
2023/06/02 08:07:50;;;;;;;6.90;5.22;;;17.90;95.40;;;17.92;74.13;97229.28;5046662;28;20416;-36
2023/06/02 08:10:16;;;;;;;6.93;4.57;;;17.90;95.00;;;17.97;76.18;97223.63;5049358;28;20081;-36
2023/06/02 08:12:42;;;;;;;6.55;4.78;;;18.10;95.50;;;18.03;75.22;97232.03;5049696;28;20299;-36
2023/06/02 08:15:08;;;;;;;6.78;3.92;;;18.10;95.30;;;18.18;79.92;97235.47;5046546;28;20439;-36
2023/06/02 08:17:34;;;;;;;5.78;4.93;;;18.10;95.70;;;18.15;72.96;97218.81;5050490;28;20035;-36
2023/06/02 08:20:01;;;;;;;8.30;5.13;;;18.30;95.20;;;18.09;71.33;97234.31;5049363;28;20025;-36
2023/06/02 08:22:28;;;;;;;6.47;5.05;;;18.30;94.30;;;18.08;72.47;97235.25;5049071;28;20032;-36
2023/06/02 08:24:55;;;;;;;9.52;5.72;;;18.20;94.40;;;17.98;70.84;97234.19;5050101;28;20048;-36
2023/06/02 08:27:21;;;;;;;8.98;5.15;;;18.10;94.10;;;17.95;72.99;97239.75;5047196;28;20036;-36
2023/06/02 08:29:51;;;;;;;5.90;4.88;;;18.10;94.50;;;17.97;72.06;97232.47;5050447;28;20094;-36
2023/06/02 08:32:18;;;;;;;7.20;5.03;;;18.00;94.40;;;17.94;72.10;97240.69;5047768;28;20045;-36
2023/06/02 08:34:50;;;;;;;9.27;5.80;;;18.00;94.50;;;17.95;72.15;97233.56;5047614;28;20367;-36
2023/06/02 08:37:20;;;;;;;12.43;6.53;;;18.10;94.60;;;17.98;71.36;97231.53;5049556;28;20497;-36
2023/06/02 08:39:48;;;;;;;8.07;5.00;;;18.10;94.20;;;18.02;73.62;97222.34;5048359;28;20040;-36
2023/06/02 08:42:15;;;;;;;8.70;5.15;;;18.20;94.80;;;18.27;74.07;97239.31;5050298;28;20392;-36
2023/06/02 08:44:43;;;;;;;8.50;5.90;;;18.30;95.00;;;18.34;72.07;97232.56;5044251;28;20048;-36
2023/06/02 08:47:13;;;;;;;8.35;5.10;;;18.40;94.40;;;18.44;72.64;97232.75;5048966;28;20707;-36
2023/06/02 08:49:46;;;;;;;6.72;4.82;;;18.50;94.70;;;18.49;72.08;97227.94;5046490;28;20117;-36
2023/06/02 08:52:23;;;;;;;8.27;5.10;;;18.50;94.30;;;18.54;70.44;97230.28;5048864;28;20389;-36
2023/06/02 08:54:50;;;;;;;6.90;5.18;;;18.60;94.20;;;18.54;70.28;97224.94;5047149;28;20039;-36
2023/06/02 08:57:16;;;;;;;7.38;5.00;;;18.60;94.00;;;18.58;75.58;97215.75;5050235;28;20094;-36
2023/06/02 08:59:46;;;;;;;7.13;5.38;;;18.70;95.10;;;18.76;71.98;97227.75;5048578;28;20496;-36
2023/06/02 09:02:13;;;;;;;7.65;5.35;;;18.80;94.60;;;18.79;68.21;97237.38;5048646;28;20435;-36
2023/06/02 09:04:39;;;;;;;6.90;5.43;;;18.80;93.40;;;18.76;70.50;97219.75;5037267;28;20032;-36
2023/06/02 09:07:16;;;;;;;7.03;5.75;;;18.90;93.90;;;18.69;69.20;97211.31;5047261;28;20044;-36
2023/06/02 09:09:53;;;;;;;11.10;5.82;;;18.80;93.70;;;18.76;69.23;97233.09;5048086;28;20021;-36
2023/06/02 09:12:20;;;;;;;6.15;4.80;;;18.80;93.50;;;18.87;70.34;97227.84;5047387;28;20032;-36
2023/06/02 09:15:08;;;;;;;10.75;5.93;;;18.90;94.00;;;18.89;70.76;97236.59;5050690;28;20032;-36
2023/06/02 09:17:34;;;;;;;8.35;4.75;;;19.00;93.90;;;19.00;71.50;97232.31;5049175;28;20043;-36
2023/06/02 09:20:06;;;;;;;6.28;5.43;;;19.00;94.20;;;19.01;69.01;97234.03;5063237;28;20020;-36
2023/06/02 09:22:33;;;;;;;7.63;5.55;;;19.10;93.80;;;19.05;69.30;97233.66;5046750;28;20031;-36
2023/06/02 09:24:58;;;;;;;7.03;4.95;;;19.10;94.00;;;19.16;71.53;97240.88;5049053;28;20024;-36
2023/06/02 09:27:25;;;;;;;7.55;5.45;;;19.20;94.20;;;19.22;67.91;97243.13;5047783;28;20048;-36
2023/06/02 09:30:00;;;;;;;9.80;4.80;;;19.30;94.00;;;19.34;70.74;97241.34;5048702;28;20029;-36
2023/06/02 09:32:26;;;;;;;7.45;4.78;;;19.40;94.40;;;19.46;66.54;97242.25;5047757;28;20090;-36
2023/06/02 09:34:52;;;;;;;6.57;4.70;;;19.50;93.30;;;19.56;64.24;97240.59;5044804;28;20033;-36
2023/06/02 09:37:19;;;;;;;6.75;5.20;;;19.60;92.40;;;19.53;65.70;97238.13;5048852;28;20063;-36
2023/06/02 09:39:52;;;;;;;11.82;6.85;;;19.60;92.90;;;19.37;62.00;97233.09;5047143;28;20048;-36
2023/06/02 09:42:19;;;;;;;10.48;6.00;;;19.60;91.60;;;19.34;62.46;97237.81;5047410;28;20116;-36
2023/06/02 09:45:05;;;;;;;6.90;5.25;;;19.50;91.70;;;19.36;65.39;97230.53;5047871;28;20028;-36
2023/06/02 09:47:39;;;;;;;8.27;5.63;;;19.50;92.10;;;19.44;62.39;97233.50;5047321;28;20037;-36
2023/06/02 09:50:05;;;;;;;9.30;6.03;;;19.50;91.90;;;19.48;61.33;97237.63;5048268;28;20021;-36
2023/06/02 09:52:31;;;;;;;9.75;6.40;;;19.60;91.60;;;19.44;60.76;97230.81;5046863;28;20029;-36
2023/06/02 09:54:59;;;;;;;8.68;5.55;;;19.60;91.30;;;19.53;62.28;97227.44;5046396;28;20025;-36
2023/06/02 09:57:25;;;;;;;7.88;5.57;;;19.60;91.70;;;19.65;64.08;97239.88;5046018;28;20031;-36
2023/06/02 09:59:51;;;;;;;10.75;5.80;;;19.70;91.70;;;19.66;62.15;97243.41;5047673;28;20028;-36
2023/06/02 10:02:17;;;;;;;7.88;4.72;;;19.70;91.40;;;19.77;63.49;97242.59;5048287;28;20484;-36
2023/06/02 10:04:45;;;;;;;12.35;6.05;;;19.80;92.10;;;19.72;60.70;97234.03;5045586;28;20035;-36
2023/06/02 10:07:45;;;;;;;6.15;4.43;;;19.80;91.20;;;19.75;61.65;97215.13;5047373;28;20267;-36
2023/06/02 10:10:31;;;;;;;7.32;5.70;;;19.90;91.80;;;19.88;60.28;97239.94;5042073;28;20323;-36
2023/06/02 10:13:17;;;;;;;9.35;5.45;;;20.00;91.00;;;19.84;59.94;97243.84;5045459;28;20325;-36
2023/06/02 10:16:10;;;;;;;7.22;4.50;;;20.00;91.20;;;19.87;61.36;97237.41;5044006;28;20060;-36